sensor_id;sensor_type;location;lat;lon;timestamp;P1;durP1;ratioP1;P2;durP2;ratioP2
32393;SDS011;18853;45.426;9.206;2022-08-11T00:01:35;10.73;;;3.15;;
32393;SDS011;18853;45.426;9.206;2022-08-11T00:04:02;8.57;;;2.83;;
32393;SDS011;18853;45.426;9.206;2022-08-11T00:06:34;6.15;;;3.47;;
32393;SDS011;18853;45.426;9.206;2022-08-11T00:09:03;7.35;;;3.33;;
32393;SDS011;18853;45.426;9.206;2022-08-11T00:11:35;9.18;;;3.58;;
32393;SDS011;18853;45.426;9.206;2022-08-11T00:14:02;5.75;;;3.22;;
32393;SDS011;18853;45.426;9.206;2022-08-11T00:16:36;8.90;;;3.65;;
32393;SDS011;18853;45.426;9.206;2022-08-11T00:19:03;6.75;;;3.47;;
32393;SDS011;18853;45.426;9.206;2022-08-11T00:21:29;11.82;;;3.42;;
32393;SDS011;18853;45.426;9.206;2022-08-11T00:23:57;7.75;;;3.63;;
32393;SDS011;18853;45.426;9.206;2022-08-11T00:26:25;6.85;;;3.20;;
32393;SDS011;18853;45.426;9.206;2022-08-11T00:28:52;6.20;;;3.00;;
32393;SDS011;18853;45.426;9.206;2022-08-11T00:36:21;5.53;;;2.40;;
32393;SDS011;18853;45.426;9.206;2022-08-11T00:38:51;9.98;;;2.35;;
32393;SDS011;18853;45.426;9.206;2022-08-11T00:55:50;4.63;;;1.70;;
32393;SDS011;18853;45.426;9.206;2022-08-11T01:09:27;2.97;;;1.40;;
32393;SDS011;18853;45.426;9.206;2022-08-11T01:12:25;3.25;;;1.55;;
32393;SDS011;18853;45.426;9.206;2022-08-11T01:20:41;5.22;;;1.70;;
32393;SDS011;18853;45.426;9.206;2022-08-11T01:46:27;4.07;;;2.10;;
32393;SDS011;18853;45.426;9.206;2022-08-11T01:49:09;5.25;;;2.25;;
32393;SDS011;18853;45.426;9.206;2022-08-11T01:51:56;5.90;;;2.10;;
32393;SDS011;18853;45.426;9.206;2022-08-11T01:54:45;3.15;;;1.92;;
32393;SDS011;18853;45.426;9.206;2022-08-11T01:57:25;3.95;;;2.00;;
32393;SDS011;18853;45.426;9.206;2022-08-11T01:59:55;4.32;;;2.17;;
32393;SDS011;18853;45.426;9.206;2022-08-11T02:02:38;5.18;;;1.98;;
32393;SDS011;18853;45.426;9.206;2022-08-11T02:25:35;4.63;;;2.10;;
32393;SDS011;18853;45.426;9.206;2022-08-11T02:28:09;4.28;;;1.95;;
32393;SDS011;18853;45.426;9.206;2022-08-11T02:31:01;4.68;;;1.85;;
32393;SDS011;18853;45.426;9.206;2022-08-11T02:33:59;4.18;;;2.00;;
32393;SDS011;18853;45.426;9.206;2022-08-11T02:39:51;4.05;;;2.20;;
32393;SDS011;18853;45.426;9.206;2022-08-11T02:53:45;4.70;;;1.98;;
32393;SDS011;18853;45.426;9.206;2022-08-11T02:56:44;5.18;;;2.30;;
32393;SDS011;18853;45.426;9.206;2022-08-11T03:10:41;4.13;;;2.17;;
32393;SDS011;18853;45.426;9.206;2022-08-11T03:13:28;5.95;;;2.00;;
32393;SDS011;18853;45.426;9.206;2022-08-11T03:16:20;5.32;;;2.05;;
32393;SDS011;18853;45.426;9.206;2022-08-11T03:25:00;4.47;;;1.98;;
32393;SDS011;18853;45.426;9.206;2022-08-11T03:30:12;4.25;;;1.95;;
32393;SDS011;18853;45.426;9.206;2022-08-11T03:38:22;3.83;;;2.20;;
32393;SDS011;18853;45.426;9.206;2022-08-11T03:46:57;4.28;;;1.98;;
32393;SDS011;18853;45.426;9.206;2022-08-11T03:55:07;4.90;;;1.83;;
32393;SDS011;18853;45.426;9.206;2022-08-11T04:51:22;4.55;;;1.98;;
32393;SDS011;18853;45.426;9.206;2022-08-11T04:57:28;6.72;;;2.22;;
32393;SDS011;18853;45.426;9.206;2022-08-11T05:00:24;7.22;;;3.00;;
32393;SDS011;18853;45.426;9.206;2022-08-11T05:03:34;5.45;;;2.90;;
32393;SDS011;18853;45.426;9.206;2022-08-11T05:06:18;6.93;;;2.70;;
32393;SDS011;18853;45.426;9.206;2022-08-11T05:09:15;8.98;;;2.97;;
32393;SDS011;18853;45.426;9.206;2022-08-11T05:14:48;8.07;;;2.92;;
32393;SDS011;18853;45.426;9.206;2022-08-11T05:17:39;9.32;;;3.22;;
32393;SDS011;18853;45.426;9.206;2022-08-11T05:20:28;5.90;;;2.85;;
32393;SDS011;18853;45.426;9.206;2022-08-11T05:23:13;5.18;;;2.90;;
32393;SDS011;18853;45.426;9.206;2022-08-11T05:25:59;7.63;;;2.83;;
32393;SDS011;18853;45.426;9.206;2022-08-11T05:28:49;8.65;;;2.90;;
32393;SDS011;18853;45.426;9.206;2022-08-11T05:31:37;9.07;;;3.10;;
32393;SDS011;18853;45.426;9.206;2022-08-11T05:34:33;8.93;;;3.13;;
32393;SDS011;18853;45.426;9.206;2022-08-11T05:40:27;6.43;;;2.80;;
32393;SDS011;18853;45.426;9.206;2022-08-11T05:43:14;5.15;;;2.70;;
32393;SDS011;18853;45.426;9.206;2022-08-11T05:46:00;7.25;;;3.00;;
32393;SDS011;18853;45.426;9.206;2022-08-11T05:48:46;7.05;;;2.90;;
32393;SDS011;18853;45.426;9.206;2022-08-11T05:51:49;5.25;;;2.70;;
32393;SDS011;18853;45.426;9.206;2022-08-11T05:54:33;6.80;;;2.47;;
32393;SDS011;18853;45.426;9.206;2022-08-11T05:57:18;4.65;;;2.20;;
32393;SDS011;18853;45.426;9.206;2022-08-11T05:59:46;6.45;;;2.38;;
32393;SDS011;18853;45.426;9.206;2022-08-11T06:02:12;7.88;;;2.40;;
32393;SDS011;18853;45.426;9.206;2022-08-11T06:04:39;6.65;;;2.40;;
32393;SDS011;18853;45.426;9.206;2022-08-11T06:07:07;7.85;;;2.75;;
32393;SDS011;18853;45.426;9.206;2022-08-11T06:09:37;9.63;;;2.60;;
32393;SDS011;18853;45.426;9.206;2022-08-11T06:14:48;6.88;;;2.35;;
32393;SDS011;18853;45.426;9.206;2022-08-11T06:17:24;7.68;;;2.35;;
32393;SDS011;18853;45.426;9.206;2022-08-11T06:19:57;5.30;;;2.33;;
32393;SDS011;18853;45.426;9.206;2022-08-11T06:22:24;6.18;;;2.95;;
32393;SDS011;18853;45.426;9.206;2022-08-11T06:24:58;6.10;;;2.83;;
32393;SDS011;18853;45.426;9.206;2022-08-11T06:27:36;6.88;;;2.92;;
32393;SDS011;18853;45.426;9.206;2022-08-11T06:30:03;8.75;;;2.75;;
32393;SDS011;18853;45.426;9.206;2022-08-11T06:32:37;10.45;;;2.90;;
32393;SDS011;18853;45.426;9.206;2022-08-11T06:37:44;7.18;;;2.80;;
32393;SDS011;18853;45.426;9.206;2022-08-11T06:40:25;8.05;;;2.88;;
32393;SDS011;18853;45.426;9.206;2022-08-11T06:43:14;7.25;;;2.78;;
32393;SDS011;18853;45.426;9.206;2022-08-11T06:45:56;5.63;;;2.60;;
32393;SDS011;18853;45.426;9.206;2022-08-11T06:48:29;6.73;;;2.73;;
32393;SDS011;18853;45.426;9.206;2022-08-11T06:51:03;6.95;;;2.75;;
32393;SDS011;18853;45.426;9.206;2022-08-11T06:53:38;7.53;;;2.60;;
32393;SDS011;18853;45.426;9.206;2022-08-11T06:56:07;7.15;;;2.50;;
32393;SDS011;18853;45.426;9.206;2022-08-11T07:13:08;9.35;;;2.67;;
32393;SDS011;18853;45.426;9.206;2022-08-11T07:15:56;6.05;;;2.60;;
32393;SDS011;18853;45.426;9.206;2022-08-11T07:18:28;6.25;;;2.60;;
32393;SDS011;18853;45.426;9.206;2022-08-11T07:21:40;7.00;;;2.38;;
32393;SDS011;18853;45.426;9.206;2022-08-11T07:24:25;6.05;;;2.40;;
32393;SDS011;18853;45.426;9.206;2022-08-11T07:27:14;5.65;;;2.70;;
32393;SDS011;18853;45.426;9.206;2022-08-11T07:30:05;6.75;;;2.30;;
32393;SDS011;18853;45.426;9.206;2022-08-11T07:32:34;4.22;;;2.00;;
32393;SDS011;18853;45.426;9.206;2022-08-11T07:35:07;4.95;;;2.50;;
32393;SDS011;18853;45.426;9.206;2022-08-11T07:37:40;6.13;;;2.40;;
32393;SDS011;18853;45.426;9.206;2022-08-11T07:40:11;6.30;;;3.05;;
32393;SDS011;18853;45.426;9.206;2022-08-11T07:42:39;8.35;;;3.10;;
32393;SDS011;18853;45.426;9.206;2022-08-11T07:45:10;7.00;;;2.83;;
32393;SDS011;18853;45.426;9.206;2022-08-11T07:47:55;5.07;;;2.28;;
32393;SDS011;18853;45.426;9.206;2022-08-11T07:50:40;5.85;;;2.97;;
32393;SDS011;18853;45.426;9.206;2022-08-11T07:53:26;7.00;;;2.80;;
32393;SDS011;18853;45.426;9.206;2022-08-11T07:55:55;4.47;;;2.80;;
32393;SDS011;18853;45.426;9.206;2022-08-11T07:58:23;5.25;;;2.63;;
32393;SDS011;18853;45.426;9.206;2022-08-11T08:03:53;5.82;;;2.50;;
32393;SDS011;18853;45.426;9.206;2022-08-11T08:06:38;8.43;;;2.33;;
32393;SDS011;18853;45.426;9.206;2022-08-11T08:09:23;8.57;;;2.53;;
32393;SDS011;18853;45.426;9.206;2022-08-11T08:12:08;5.55;;;2.20;;
32393;SDS011;18853;45.426;9.206;2022-08-11T08:14:53;6.47;;;2.20;;
32393;SDS011;18853;45.426;9.206;2022-08-11T08:17:39;10.63;;;2.17;;
32393;SDS011;18853;45.426;9.206;2022-08-11T08:20:14;5.30;;;2.00;;
32393;SDS011;18853;45.426;9.206;2022-08-11T08:22:43;14.48;;;2.63;;
32393;SDS011;18853;45.426;9.206;2022-08-11T08:25:10;4.05;;;2.13;;
32393;SDS011;18853;45.426;9.206;2022-08-11T08:27:37;6.40;;;2.10;;
32393;SDS011;18853;45.426;9.206;2022-08-11T08:30:04;4.57;;;1.98;;
32393;SDS011;18853;45.426;9.206;2022-08-11T08:32:49;6.65;;;1.95;;
32393;SDS011;18853;45.426;9.206;2022-08-11T08:35:16;3.75;;;1.80;;
32393;SDS011;18853;45.426;9.206;2022-08-11T08:37:43;4.57;;;1.65;;
32393;SDS011;18853;45.426;9.206;2022-08-11T08:40:09;3.80;;;1.80;;
32393;SDS011;18853;45.426;9.206;2022-08-11T08:42:40;4.63;;;2.10;;
32393;SDS011;18853;45.426;9.206;2022-08-11T08:45:11;6.15;;;2.28;;
32393;SDS011;18853;45.426;9.206;2022-08-11T08:47:44;6.25;;;1.85;;
32393;SDS011;18853;45.426;9.206;2022-08-11T08:50:16;5.32;;;2.05;;
32393;SDS011;18853;45.426;9.206;2022-08-11T08:52:49;5.30;;;1.73;;
32393;SDS011;18853;45.426;9.206;2022-08-11T08:55:18;5.00;;;2.00;;
32393;SDS011;18853;45.426;9.206;2022-08-11T08:57:45;12.43;;;2.88;;
32393;SDS011;18853;45.426;9.206;2022-08-11T09:00:14;11.65;;;3.75;;
32393;SDS011;18853;45.426;9.206;2022-08-11T09:02:41;5.78;;;2.67;;
32393;SDS011;18853;45.426;9.206;2022-08-11T09:05:08;7.45;;;2.85;;
32393;SDS011;18853;45.426;9.206;2022-08-11T09:07:35;6.68;;;2.55;;
32393;SDS011;18853;45.426;9.206;2022-08-11T09:10:02;5.57;;;1.90;;
32393;SDS011;18853;45.426;9.206;2022-08-11T09:12:30;5.93;;;1.80;;
32393;SDS011;18853;45.426;9.206;2022-08-11T09:14:58;5.55;;;2.03;;
32393;SDS011;18853;45.426;9.206;2022-08-11T09:17:25;4.68;;;1.88;;
32393;SDS011;18853;45.426;9.206;2022-08-11T09:19:54;5.57;;;1.90;;
32393;SDS011;18853;45.426;9.206;2022-08-11T09:22:28;3.55;;;1.92;;
32393;SDS011;18853;45.426;9.206;2022-08-11T09:25:16;9.00;;;2.35;;
32393;SDS011;18853;45.426;9.206;2022-08-11T09:28:02;18.00;;;2.70;;
32393;SDS011;18853;45.426;9.206;2022-08-11T09:30:32;20.33;;;2.70;;
32393;SDS011;18853;45.426;9.206;2022-08-11T09:32:58;12.13;;;2.60;;
32393;SDS011;18853;45.426;9.206;2022-08-11T09:35:29;15.18;;;2.40;;
32393;SDS011;18853;45.426;9.206;2022-08-11T09:38:01;15.27;;;2.85;;
32393;SDS011;18853;45.426;9.206;2022-08-11T09:40:47;9.45;;;2.10;;
32393;SDS011;18853;45.426;9.206;2022-08-11T09:43:14;9.90;;;2.33;;
32393;SDS011;18853;45.426;9.206;2022-08-11T09:46:00;7.07;;;2.50;;
32393;SDS011;18853;45.426;9.206;2022-08-11T09:48:28;6.93;;;2.20;;
32393;SDS011;18853;45.426;9.206;2022-08-11T09:51:00;6.95;;;2.15;;
32393;SDS011;18853;45.426;9.206;2022-08-11T09:53:29;4.40;;;1.75;;
32393;SDS011;18853;45.426;9.206;2022-08-11T09:55:57;9.13;;;1.98;;
32393;SDS011;18853;45.426;9.206;2022-08-11T09:58:23;6.97;;;2.75;;
32393;SDS011;18853;45.426;9.206;2022-08-11T10:00:49;4.80;;;2.15;;
32393;SDS011;18853;45.426;9.206;2022-08-11T10:03:23;5.60;;;2.03;;
32393;SDS011;18853;45.426;9.206;2022-08-11T10:05:52;6.13;;;2.50;;
32393;SDS011;18853;45.426;9.206;2022-08-11T10:08:46;5.72;;;2.78;;
32393;SDS011;18853;45.426;9.206;2022-08-11T10:11:15;4.68;;;2.30;;
32393;SDS011;18853;45.426;9.206;2022-08-11T10:13:46;5.22;;;2.20;;
32393;SDS011;18853;45.426;9.206;2022-08-11T10:16:36;4.53;;;2.33;;
32393;SDS011;18853;45.426;9.206;2022-08-11T10:19:05;4.47;;;1.90;;
32393;SDS011;18853;45.426;9.206;2022-08-11T10:21:36;3.50;;;2.25;;
32393;SDS011;18853;45.426;9.206;2022-08-11T10:24:07;6.15;;;2.60;;
32393;SDS011;18853;45.426;9.206;2022-08-11T10:26:53;4.18;;;2.20;;
32393;SDS011;18853;45.426;9.206;2022-08-11T10:29:23;6.03;;;2.50;;
32393;SDS011;18853;45.426;9.206;2022-08-11T10:32:10;5.20;;;2.35;;
32393;SDS011;18853;45.426;9.206;2022-08-11T10:35:14;6.10;;;2.38;;
32393;SDS011;18853;45.426;9.206;2022-08-11T10:37:42;6.00;;;2.20;;
32393;SDS011;18853;45.426;9.206;2022-08-11T10:40:13;5.00;;;2.83;;
32393;SDS011;18853;45.426;9.206;2022-08-11T10:42:40;6.63;;;2.40;;
32393;SDS011;18853;45.426;9.206;2022-08-11T10:45:25;6.65;;;2.78;;
32393;SDS011;18853;45.426;9.206;2022-08-11T10:48:10;4.60;;;2.28;;
32393;SDS011;18853;45.426;9.206;2022-08-11T10:50:36;5.88;;;2.70;;
32393;SDS011;18853;45.426;9.206;2022-08-11T10:53:21;4.78;;;2.40;;
32393;SDS011;18853;45.426;9.206;2022-08-11T10:56:06;7.38;;;2.40;;
32393;SDS011;18853;45.426;9.206;2022-08-11T10:58:51;8.77;;;2.70;;
32393;SDS011;18853;45.426;9.206;2022-08-11T11:03:47;4.15;;;2.10;;
32393;SDS011;18853;45.426;9.206;2022-08-11T11:09:06;7.32;;;1.83;;
32393;SDS011;18853;45.426;9.206;2022-08-11T11:11:48;4.70;;;2.20;;
32393;SDS011;18853;45.426;9.206;2022-08-11T11:14:39;5.70;;;2.00;;
32393;SDS011;18853;45.426;9.206;2022-08-11T11:17:30;5.15;;;2.28;;
32393;SDS011;18853;45.426;9.206;2022-08-11T11:20:29;5.70;;;2.33;;
32393;SDS011;18853;45.426;9.206;2022-08-11T11:37:06;4.00;;;1.83;;
32393;SDS011;18853;45.426;9.206;2022-08-11T11:39:32;4.78;;;2.08;;
32393;SDS011;18853;45.426;9.206;2022-08-11T11:42:02;11.13;;;5.05;;
32393;SDS011;18853;45.426;9.206;2022-08-11T11:44:29;6.60;;;2.60;;
32393;SDS011;18853;45.426;9.206;2022-08-11T11:46:57;7.22;;;3.78;;
32393;SDS011;18853;45.426;9.206;2022-08-11T11:49:26;4.90;;;3.13;;
32393;SDS011;18853;45.426;9.206;2022-08-11T11:51:53;5.72;;;2.47;;
32393;SDS011;18853;45.426;9.206;2022-08-11T11:54:21;5.07;;;2.05;;
32393;SDS011;18853;45.426;9.206;2022-08-11T11:56:52;3.25;;;2.13;;
32393;SDS011;18853;45.426;9.206;2022-08-11T11:59:20;3.28;;;1.90;;
32393;SDS011;18853;45.426;9.206;2022-08-11T12:04:36;4.75;;;2.00;;
32393;SDS011;18853;45.426;9.206;2022-08-11T12:07:04;3.85;;;2.13;;
32393;SDS011;18853;45.426;9.206;2022-08-11T12:09:50;5.80;;;2.10;;
32393;SDS011;18853;45.426;9.206;2022-08-11T12:12:17;3.65;;;1.73;;
32393;SDS011;18853;45.426;9.206;2022-08-11T12:14:59;4.95;;;1.90;;
32393;SDS011;18853;45.426;9.206;2022-08-11T12:17:25;6.75;;;2.00;;
32393;SDS011;18853;45.426;9.206;2022-08-11T12:19:51;3.90;;;1.92;;
32393;SDS011;18853;45.426;9.206;2022-08-11T12:22:17;5.13;;;1.98;;
32393;SDS011;18853;45.426;9.206;2022-08-11T12:25:02;5.15;;;1.80;;
32393;SDS011;18853;45.426;9.206;2022-08-11T12:27:48;4.90;;;2.17;;
32393;SDS011;18853;45.426;9.206;2022-08-11T12:30:14;4.20;;;2.10;;
32393;SDS011;18853;45.426;9.206;2022-08-11T12:32:40;7.38;;;2.10;;
32393;SDS011;18853;45.426;9.206;2022-08-11T12:35:07;4.93;;;1.98;;
32393;SDS011;18853;45.426;9.206;2022-08-11T12:37:39;3.83;;;1.90;;
32393;SDS011;18853;45.426;9.206;2022-08-11T12:40:10;4.55;;;2.00;;
32393;SDS011;18853;45.426;9.206;2022-08-11T12:42:57;7.35;;;2.08;;
32393;SDS011;18853;45.426;9.206;2022-08-11T12:45:44;9.52;;;2.33;;
32393;SDS011;18853;45.426;9.206;2022-08-11T12:48:15;7.65;;;2.08;;
32393;SDS011;18853;45.426;9.206;2022-08-11T12:51:02;3.85;;;1.80;;
32393;SDS011;18853;45.426;9.206;2022-08-11T12:54:08;4.05;;;1.90;;
32393;SDS011;18853;45.426;9.206;2022-08-11T12:56:39;6.15;;;2.00;;
32393;SDS011;18853;45.426;9.206;2022-08-11T12:59:26;4.70;;;1.92;;
32393;SDS011;18853;45.426;9.206;2022-08-11T13:02:14;4.35;;;1.92;;
32393;SDS011;18853;45.426;9.206;2022-08-11T13:05:01;3.30;;;1.70;;
32393;SDS011;18853;45.426;9.206;2022-08-11T13:07:28;5.03;;;1.77;;
32393;SDS011;18853;45.426;9.206;2022-08-11T13:09:56;4.82;;;1.98;;
32393;SDS011;18853;45.426;9.206;2022-08-11T13:12:23;7.03;;;2.45;;
